Time;durP1;ratioP1;P1;durP2;ratioP2;P2;SDS_P1;SDS_P2;PMS_P1;PMS_P2;Temp;Humidity;BMP_temperature;BMP_pressure;BME280_temperature;BME280_humidity;BME280_pressure;Samples;Min_cycle;Max_cycle;Signal;HPM_P1;HPM_P2
2023/08/01 00:00:07;;;;;;;17.67;3.20;;;;;;;16.72;100.00;48651.56;5030761;28;20032;-78
2023/08/01 00:02:33;;;;;;;18.63;4.00;;;;;;;16.67;100.00;49346.91;5019735;28;20091;-78
2023/08/01 00:04:58;;;;;;;12.33;3.47;;;;;;;16.65;100.00;50043.94;5021380;28;20026;-76
2023/08/01 00:07:26;;;;;;;18.93;3.60;;;;;;;16.64;100.00;50392.69;5023423;28;20037;-77
2023/08/01 00:09:51;;;;;;;20.67;4.68;;;;;;;16.53;100.00;51782.25;5023214;28;20120;-77
2023/08/01 00:12:17;;;;;;;18.70;4.80;;;;;;;16.46;100.00;51776.09;5025029;28;20108;-77
2023/08/01 00:14:43;;;;;;;20.57;4.33;;;;;;;16.46;100.00;51076.44;5021030;28;20124;-77
2023/08/01 00:17:10;;;;;;;19.38;4.40;;;;;;;16.45;100.00;50376.91;5026512;28;20033;-77
2023/08/01 00:19:35;;;;;;;16.00;3.95;;;;;;;16.51;100.00;51080.75;5019451;28;20059;-76
2023/08/01 00:22:00;;;;;;;14.80;3.53;;;;;;;16.53;100.00;52481.22;5023191;28;20037;-77
2023/08/01 00:24:26;;;;;;;18.30;4.53;;;;;;;16.54;100.00;54231.25;5024881;28;20036;-75
2023/08/01 00:26:55;;;;;;;17.23;3.40;;;;;;;16.53;100.00;54230.81;5027285;28;20539;-76
2023/08/01 00:29:22;;;;;;;12.75;4.13;;;;;;;16.54;100.00;54931.59;5020022;28;20384;-77
2023/08/01 00:31:48;;;;;;;33.70;4.88;;;;;;;16.49;100.00;55626.44;5023045;28;20664;-77
2023/08/01 00:34:13;;;;;;;14.20;3.67;;;;;;;16.51;100.00;55978.81;5031683;28;20136;-77
2023/08/01 00:36:39;;;;;;;20.40;4.07;;;;;;;16.48;100.00;55975.97;5025361;28;20031;-77
2023/08/01 00:39:04;;;;;;;31.03;4.73;;;;;;;16.49;100.00;55276.91;5024321;28;20037;-77
2023/08/01 00:41:30;;;;;;;18.80;3.70;;;;;;;16.50;100.00;54927.88;5027666;28;20021;-77
2023/08/01 00:43:55;;;;;;;18.80;4.27;;;;;;;16.47;100.00;53525.16;5025050;28;20030;-76
2023/08/01 00:46:20;;;;;;;17.50;4.10;;;;;;;16.49;100.00;54227.13;5024899;28;20393;-78
2023/08/01 00:48:46;;;;;;;18.47;4.17;;;;;;;16.53;100.00;54580.25;5019072;28;20424;-78
2023/08/01 00:51:12;;;;;;;18.60;3.87;;;;;;;16.53;100.00;55280.19;5018657;28;20063;-77
2023/08/01 00:53:39;;;;;;;15.50;3.90;;;;;;;16.49;100.00;58077.69;5030083;28;20024;-78
2023/08/01 00:56:05;;;;;;;;;;;;;;;16.47;100.00;60527.44;5018800;28;20058;-77
2023/08/01 00:58:30;;;;;;;18.08;4.25;;;;;;;16.42;100.00;61223.19;5027828;28;19942;-78
2023/08/01 01:00:56;;;;;;;12.13;3.30;;;;;;;16.40;100.00;61221.13;5022660;28;20132;-75
2023/08/01 01:03:23;;;;;;;23.00;4.90;;;;;;;16.32;100.00;61212.88;5029757;28;20499;-77
2023/08/01 01:06:09;;;;;;;15.43;3.28;;;;;;;16.27;100.00;59456.75;5023577;28;20030;-76
2023/08/01 01:08:34;;;;;;;15.05;4.30;;;;;;;16.28;100.00;58056.63;5020485;28;20453;-77
2023/08/01 01:11:00;;;;;;;15.03;3.87;;;;;;;16.28;100.00;56656.47;5025612;28;20145;-77
2023/08/01 01:13:25;;;;;;;16.17;3.70;;;;;;;16.25;100.00;56304.16;5023280;28;20220;-77
2023/08/01 01:15:51;;;;;;;16.13;4.47;;;;;;;16.25;100.00;55953.75;5031164;28;20034;-76
2023/08/01 01:38:57;;;;;;;13.77;3.95;;;;;;;16.29;100.00;54908.41;5469369;22;20057;-77
2023/08/01 01:41:23;;;;;;;15.80;4.60;;;;;;;16.34;100.00;56662.22;5042677;28;20463;-77
2023/08/01 01:43:48;;;;;;;28.63;5.43;;;;;;;16.32;100.00;56660.31;5044642;28;20063;-77
2023/08/01 01:46:14;;;;;;;12.60;3.97;;;;;;;16.36;100.00;57364.22;5035290;28;20029;-77
2023/08/01 01:48:39;;;;;;;13.20;5.07;;;;;;;16.41;100.00;58769.75;5034850;28;20162;-77
2023/08/01 01:51:05;;;;;;;13.83;4.33;;;;;;;16.42;100.00;60171.94;5059354;28;20032;-78
2023/08/01 01:53:30;;;;;;;16.20;4.13;;;;;;;16.38;100.00;61219.06;5044157;28;20091;-78
2023/08/01 01:55:56;;;;;;;15.63;4.27;;;;;;;16.44;100.00;62276.78;5042856;28;20032;-77
2023/08/01 01:58:21;;;;;;;13.67;4.83;;;;;;;16.51;100.00;65089.91;5044793;28;20033;-77
2023/08/01 02:00:48;;;;;;;16.10;3.83;;;;;;;16.51;100.00;67195.56;5034222;28;20503;-77
2023/08/01 02:03:14;;;;;;;13.75;4.20;;;;;;;16.49;100.00;67895.97;5046027;28;20449;-77
2023/08/01 02:05:40;;;;;;;20.43;3.97;;;;;;;16.47;100.00;67893.09;5034719;28;20120;-77
2023/08/01 02:08:06;;;;;;;12.85;4.18;;;;;;;16.48;100.00;68245.34;5042140;28;20032;-78
2023/08/01 02:10:32;;;;;;;15.03;4.30;;;;;;;16.50;100.00;68598.78;5042956;28;20028;-78
2023/08/01 02:12:57;;;;;;;18.27;4.83;;;;;;;16.47;100.00;68244.19;5036282;28;20060;-77
2023/08/01 02:15:23;;;;;;;21.27;4.50;;;;;;;16.48;100.00;70703.88;5054821;28;20070;-74
2023/08/01 02:17:48;;;;;;;16.77;4.50;;;;;;;16.47;100.00;70702.66;5043733;28;20322;-74
2023/08/01 02:20:14;;;;;;;11.10;3.23;;;;;;;16.41;100.00;72452.34;5036294;28;20495;-72
2023/08/01 02:22:39;;;;;;;16.73;4.47;;;;;;;16.40;100.00;73154.06;5053530;28;20191;-72
2023/08/01 02:25:05;;;;;;;18.47;4.90;;;;;;;16.41;100.00;74562.16;5052584;28;20031;-73
2023/08/01 02:27:31;;;;;;;22.47;4.03;;;;;;;16.37;100.00;75611.44;5058458;28;20387;-73
2023/08/01 02:29:56;;;;;;;16.50;4.33;;;;;;;16.34;100.00;75256.59;5060098;28;20043;-73
2023/08/01 02:32:22;;;;;;;15.30;5.10;;;;;;;16.31;100.00;75252.81;5058048;28;20020;-73
2023/08/01 02:34:47;;;;;;;15.83;4.50;;;;;;;16.31;100.00;74900.56;5051974;28;20032;-72
2023/08/01 02:37:13;;;;;;;20.47;4.20;;;;;;;16.32;100.00;75956.78;5057678;28;20024;-73
2023/08/01 02:39:38;;;;;;;19.07;4.97;;;;;;;16.25;100.00;76651.88;5037673;28;20045;-72
2023/08/01 02:42:04;;;;;;;13.27;4.83;;;;;;;16.23;100.00;77001.00;5039244;28;20025;-74
2023/08/01 02:44:31;;;;;;;13.20;4.73;;;;;;;16.22;100.00;74186.25;5033546;28;20025;-72
2023/08/01 02:46:56;;;;;;;12.77;3.83;;;;;;;16.21;100.00;73834.16;5036273;28;20467;-73
2023/08/01 02:49:22;;;;;;;17.83;4.37;;;;;;;16.24;100.00;71729.03;5037107;28;20101;-73
2023/08/01 02:51:47;;;;;;;17.40;4.27;;;;;;;16.22;100.00;70321.81;5039654;28;20203;-73
2023/08/01 02:54:12;;;;;;;17.03;4.60;;;;;;;16.18;100.00;68561.88;5029163;28;20392;-73
2023/08/01 02:56:40;;;;;;;10.63;4.40;;;;;;;16.18;100.00;67860.56;5042586;28;20024;-73
2023/08/01 02:59:08;;;;;;;21.42;4.75;;;;;;;16.20;100.00;66809.69;5045338;28;20407;-73
2023/08/01 03:01:35;;;;;;;14.60;4.85;;;;;;;16.23;100.00;67164.47;5036779;28;20440;-73
2023/08/01 03:04:02;;;;;;;19.95;5.72;;;;;;;16.19;100.00;66106.97;5033421;28;20032;-73
2023/08/01 03:06:27;;;;;;;15.55;4.88;;;;;;;16.23;100.00;67866.25;5031321;28;20365;-74
2023/08/01 03:08:53;;;;;;;10.57;4.77;;;;;;;16.19;100.00;67861.13;5031973;28;20025;-73
2023/08/01 03:11:19;;;;;;;21.27;5.23;;;;;;;16.16;100.00;68208.63;5032844;28;20080;-73
2023/08/01 03:13:45;;;;;;;14.40;4.30;;;;;;;16.12;100.00;67502.88;5035980;28;20029;-73
2023/08/01 03:16:10;;;;;;;15.97;4.80;;;;;;;16.18;100.00;66807.44;5040060;28;20489;-73
2023/08/01 03:18:36;;;;;;;18.00;5.43;;;;;;;16.13;100.00;66451.06;5036247;28;20025;-73
2023/08/01 03:21:03;;;;;;;13.23;4.63;;;;;;;16.09;100.00;65745.75;5035708;28;20469;-73
2023/08/01 03:23:29;;;;;;;16.52;5.90;;;;;;;16.15;100.00;65401.69;5036834;28;20071;-74
2023/08/01 03:25:55;;;;;;;15.55;5.43;;;;;;;16.12;100.00;64346.03;5037344;28;20041;-75
2023/08/01 03:28:21;;;;;;;18.37;5.33;;;;;;;16.17;100.00;64702.03;5035000;28;20044;-74
2023/08/01 03:30:49;;;;;;;28.17;5.70;;;;;;;16.18;100.00;65054.31;5026927;28;20283;-73
2023/08/01 03:33:15;;;;;;;22.17;5.45;;;;;;;16.23;100.00;66813.59;5036794;28;20021;-73
2023/08/01 03:35:41;;;;;;;20.67;4.90;;;;;;;16.21;100.00;67864.00;5034145;28;20089;-74
2023/08/01 03:38:06;;;;;;;17.50;4.97;;;;;;;16.18;100.00;67860.00;5039808;28;20524;-74
2023/08/01 03:40:32;;;;;;;22.33;6.93;;;;;;;16.15;100.00;67856.56;5055314;28;20028;-74
2023/08/01 03:42:57;;;;;;;15.63;5.13;;;;;;;16.17;100.00;66806.31;5058318;28;20021;-73
2023/08/01 03:45:22;;;;;;;23.67;6.00;;;;;;;16.15;100.00;66102.53;5054839;28;20086;-73
2023/08/01 03:47:48;;;;;;;15.00;5.67;;;;;;;16.10;100.00;65396.19;5054897;28;20571;-74
2023/08/01 03:50:13;;;;;;;17.37;5.93;;;;;;;16.11;100.00;64344.94;5051684;28;20373;-74
2023/08/01 03:52:39;;;;;;;17.13;5.43;;;;;;;16.10;100.00;63642.81;5058565;28;20044;-74
2023/08/01 03:55:05;;;;;;;15.80;6.00;;;;;;;16.08;100.00;61889.22;5035428;28;20087;-73
2023/08/01 03:57:33;;;;;;;20.67;5.90;;;;;;;16.12;100.00;61192.75;5056382;28;20114;-74
2023/08/01 03:59:59;;;;;;;28.80;6.38;;;;;;;16.12;100.00;58741.03;5058405;28;20028;-74
2023/08/01 04:02:24;;;;;;;23.13;5.87;;;;;;;16.12;100.00;57341.00;5041597;28;20040;-75
2023/08/01 04:04:50;;;;;;;21.40;5.70;;;;;;;16.13;100.00;54543.38;5050375;28;20037;-74
2023/08/01 04:07:15;;;;;;;19.23;6.50;;;;;;;16.20;100.00;53501.19;5039533;28;20464;-74
2023/08/01 04:09:40;;;;;;;17.50;7.03;;;;;;;16.19;100.00;52451.03;5034674;28;20028;-73
2023/08/01 04:12:06;;;;;;;19.87;6.10;;;;;;;16.13;100.00;49999.88;5052361;28;20074;-74
2023/08/01 04:14:33;;;;;;;25.03;6.13;;;;;;;16.11;100.00;47554.31;5052533;28;20033;-74
2023/08/01 04:16:58;;;;;;;21.73;5.70;;;;;;;16.15;100.00;45812.03;5016486;28;20380;-74
2023/08/01 04:19:24;;;;;;;29.02;7.60;;;;;;;16.18;100.00;45116.91;5058976;28;20127;-74
2023/08/01 04:21:50;;;;;;;19.10;6.20;;;;;;;16.12;100.00;44763.44;5037870;28;20107;-74
2023/08/01 04:24:16;;;;;;;24.73;6.80;;;;;;;16.16;100.00;43720.06;5054173;28;20037;-74
2023/08/01 04:26:41;;;;;;;24.20;6.00;;;;;;;16.15;100.00;43021.88;5036865;28;20072;-74
2023/08/01 04:29:06;;;;;;;25.53;5.30;;;;;;;16.21;100.00;41979.84;5052271;28;20028;-74
2023/08/01 04:31:32;;;;;;;19.27;6.47;;;;;;;16.18;100.00;42326.34;5049288;28;20032;-74
2023/08/01 04:33:57;;;;;;;29.43;6.63;;;;;;;16.15;100.00;42324.16;5051199;28;20021;-74
2023/08/01 04:36:23;;;;;;;25.17;5.87;;;;;;;16.19;100.00;41978.41;5040716;28;20067;-74
2023/08/01 04:38:48;;;;;;;21.43;5.63;;;;;;;16.19;100.00;43024.81;5053629;28;20514;-74
2023/08/01 04:41:14;;;;;;;19.40;6.37;;;;;;;16.19;100.00;43024.44;5033732;28;20051;-74
2023/08/01 04:43:39;;;;;;;18.23;6.07;;;;;;;16.22;100.00;42329.59;5039053;28;20072;-74
2023/08/01 04:46:05;;;;;;;17.93;6.10;;;;;;;16.19;100.00;43373.53;5048615;28;20035;-74
2023/08/01 04:48:30;;;;;;;22.43;6.27;;;;;;;16.22;100.00;44422.19;5058524;28;20024;-74
2023/08/01 04:50:55;;;;;;;22.50;5.90;;;;;;;16.28;100.00;45822.16;5055138;28;20407;-74
2023/08/01 04:53:21;;;;;;;23.53;6.30;;;;;;;16.33;100.00;47222.47;5054364;28;20033;-75
2023/08/01 04:55:47;;;;;;;25.37;5.53;;;;;;;16.38;100.00;48972.84;5044008;28;20560;-74
2023/08/01 04:58:13;;;;;;;20.60;5.68;;;;;;;16.44;100.00;50725.59;5063468;28;20043;-74
2023/08/01 05:00:41;;;;;;;17.17;5.43;;;;;;;16.52;100.00;53179.88;5050339;28;20112;-74
2023/08/01 05:03:06;;;;;;;23.63;5.28;;;;;;;16.53;100.00;54930.19;5032572;28;20028;-74
2023/08/01 05:05:32;;;;;;;27.27;6.23;;;;;;;16.58;100.00;59487.84;5046255;28;20036;-72
2023/08/01 05:07:57;;;;;;;24.87;5.20;;;;;;;16.60;100.00;61592.34;5055273;28;20128;-75
2023/08/01 05:10:23;;;;;;;19.93;5.47;;;;;;;16.61;100.00;64749.97;5056923;28;20036;-75
2023/08/01 05:12:48;;;;;;;21.77;5.97;;;;;;;16.54;100.00;67198.94;5041290;28;20047;-73
2023/08/01 05:15:15;;;;;;;19.90;5.77;;;;;;;16.51;100.00;67547.19;5041812;28;20032;-74
2023/08/01 05:17:41;;;;;;;15.43;4.63;;;;;;;16.49;100.00;69300.53;5038031;28;20442;-73
2023/08/01 05:20:07;;;;;;;21.23;5.93;;;;;;;16.48;100.00;71055.22;5027047;28;20045;-73
2023/08/01 05:22:32;;;;;;;19.70;5.65;;;;;;;16.49;100.00;70705.63;5038151;28;20036;-74
2023/08/01 05:25:01;;;;;;;24.57;6.53;;;;;;;16.52;100.00;71411.34;5054865;28;20443;-73
2023/08/01 05:27:27;;;;;;;14.23;4.95;;;;;;;16.53;100.00;71412.56;5037319;28;20025;-74
2023/08/01 05:29:53;;;;;;;26.37;5.27;;;;;;;16.52;100.00;71411.97;5055450;28;20357;-74
2023/08/01 05:32:18;;;;;;;21.87;6.07;;;;;;;16.56;100.00;71416.16;5061113;28;20036;-74
2023/08/01 05:34:44;;;;;;;23.93;5.07;;;;;;;16.59;100.00;73881.28;5042011;28;20032;-74
2023/08/01 05:37:09;;;;;;;19.47;5.17;;;;;;;16.63;100.00;75644.44;5042116;28;20079;-74
2023/08/01 05:39:36;;;;;;;17.03;5.53;;;;;;;16.70;100.00;80935.75;5057750;28;20554;-74
2023/08/01 05:42:01;;;;;;;21.60;5.55;;;;;;;16.70;100.00;84107.47;5052457;28;20392;-74
2023/08/01 05:44:27;;;;;;;22.87;6.07;;;;;;;16.79;100.00;89767.72;5054782;28;20044;-74
2023/08/01 05:46:52;;;;;;;22.80;5.37;;;;;;;16.92;100.00;96503.81;5035756;28;20443;-74
2023/08/01 05:49:17;;;;;;;22.00;4.23;;;;;;;16.99;100.00;105727.31;5053373;28;20033;-75
2023/08/01 05:51:43;;;;;;;14.07;4.80;;;;;;;17.10;100.00;116047.56;5050658;28;20041;-74
2023/08/01 05:54:08;;;;;;;26.10;4.77;;;;;;;17.07;100.00;126011.56;5058074;28;20826;-77
2023/08/01 05:56:34;;;;;;;17.10;4.83;;;;;;;17.00;100.00;132416.94;5038011;28;20123;-76
2023/08/01 05:59:00;;;;;;;15.77;4.70;;;;;;;16.98;100.00;132055.56;5028778;28;20405;-77
2023/08/01 06:01:26;;;;;;;25.58;4.55;;;;;;;17.04;100.00;135283.06;5032373;28;20036;-76
2023/08/01 06:03:51;;;;;;;17.60;4.17;;;;;;;17.04;100.00;139930.34;5028723;28;20033;-77
2023/08/01 06:06:17;;;;;;;14.30;4.07;;;;;;;17.21;100.00;141759.41;5056779;28;20029;-77
2023/08/01 06:08:42;;;;;;;11.90;4.10;;;;;;;17.40;100.00;149896.59;5031053;28;20036;-79
2023/08/01 06:11:08;;;;;;;22.63;4.73;;;;;;;17.42;100.00;155794.59;5039715;28;20761;-78
2023/08/01 06:13:33;;;;;;;18.00;4.27;;;;;;;17.59;100.00;155840.16;5031664;28;20044;-77
2023/08/01 06:15:59;;;;;;;18.40;4.80;;;;;;;18.09;100.00;155969.06;5050701;28;20396;-77
2023/08/01 06:18:25;;;;;;;20.37;5.07;;;;;;;19.00;100.00;156206.22;5052708;28;20017;-77
2023/08/01 06:20:51;;;;;;;14.82;4.35;;;;;;;19.29;100.00;156283.16;5057404;28;20171;-78
2023/08/01 06:23:16;;;;;;;13.23;4.03;;;;;;;19.71;100.00;156392.66;5042771;28;20437;-78
2023/08/01 06:25:42;;;;;;;14.43;4.38;;;;;;;20.68;100.00;156645.75;5054956;28;20082;-78
2023/08/01 06:28:07;;;;;;;22.90;4.47;;;;;;;20.93;100.00;156709.75;5051414;28;20028;-77
2023/08/01 06:30:33;;;;;;;11.17;3.87;;;;;;;20.98;100.00;156724.06;5036698;28;20033;-77
2023/08/01 06:32:58;;;;;;;12.03;4.50;;;;;;;20.87;100.00;156695.31;5043838;28;20021;-76
2023/08/01 06:35:24;;;;;;;16.40;4.17;;;;;;;20.39;100.00;156568.78;5054078;28;20031;-76
2023/08/01 06:37:51;;;;;;;13.27;4.77;;;;;;;20.37;100.00;156564.84;5053329;28;20125;-76
2023/08/01 06:40:17;;;;;;;11.43;3.15;;;;;;;20.66;100.00;156639.22;5053468;28;20484;-77
2023/08/01 06:42:42;;;;;;;15.17;4.20;;;;;;;21.01;100.00;156730.59;5038418;28;20123;-75
2023/08/01 06:45:08;;;;;;;11.60;4.07;;;;;;;21.26;100.00;156797.19;5030935;28;20044;-77
2023/08/01 06:47:33;;;;;;;15.47;3.83;;;;;;;22.11;98.90;157017.91;5032218;28;20394;-75
2023/08/01 06:49:59;;;;;;;14.23;4.63;;;;;;;22.06;97.55;157004.84;5054331;28;20571;-77
2023/08/01 06:52:25;;;;;;;12.43;3.90;;;;;;;21.71;96.74;156914.72;5052598;28;20027;-78
2023/08/01 06:54:51;;;;;;;;;;;;;;;21.02;98.98;156733.25;5022590;28;20055;-77
2023/08/01 06:57:16;;;;;;;16.92;4.53;;;;;;;19.89;100.00;156439.59;5033309;28;19948;-77
2023/08/01 06:59:41;;;;;;;16.17;3.90;;;;;;;19.29;100.00;156281.84;5050568;28;20020;-77
2023/08/01 07:02:08;;;;;;;16.00;3.93;;;;;;;18.60;100.00;156103.28;5048105;28;20416;-77
2023/08/01 07:04:34;;;;;;;16.67;4.15;;;;;;;18.31;100.00;156027.66;5041366;28;20037;-73
2023/08/01 07:06:59;;;;;;;10.65;3.55;;;;;;;18.18;100.00;155992.47;5049951;28;20393;-73
2023/08/01 07:09:25;;;;;;;16.70;4.80;;;;;;;18.19;100.00;155996.41;5035987;28;20468;-73
2023/08/01 07:11:50;;;;;;;15.17;4.13;;;;;;;18.30;100.00;156025.03;5034107;28;20052;-73
2023/08/01 07:14:15;;;;;;;21.10;3.23;;;;;;;19.59;100.00;156360.06;5045258;28;20033;-73
2023/08/01 07:16:41;;;;;;;15.33;4.33;;;;;;;19.97;100.00;156459.16;5049837;28;20067;-73
2023/08/01 07:19:06;;;;;;;19.03;4.17;;;;;;;20.57;100.00;156615.72;5022292;28;20083;-73
2023/08/01 07:21:31;;;;;;;19.00;4.77;;;;;;;19.77;100.00;156406.97;5044155;28;20029;-74
2023/08/01 07:23:57;;;;;;;20.10;4.60;;;;;;;19.04;100.00;156216.66;5045453;28;20123;-74
2023/08/01 07:26:23;;;;;;;13.55;3.90;;;;;;;18.95;100.00;156194.44;5031040;28;20594;-74
2023/08/01 07:28:48;;;;;;;14.97;4.03;;;;;;;18.39;100.00;156048.56;5038515;28;20031;-74
2023/08/01 07:31:14;;;;;;;17.80;4.43;;;;;;;18.21;100.00;156001.63;5037929;28;20098;-75
2023/08/01 07:33:39;;;;;;;14.10;4.20;;;;;;;19.00;100.00;156206.22;5061171;28;20034;-75
2023/08/01 07:36:05;;;;;;;14.10;4.07;;;;;;;20.14;100.00;156503.53;5049710;28;20024;-75
2023/08/01 07:38:31;;;;;;;12.27;3.73;;;;;;;20.81;100.00;156678.38;5061971;28;20045;-74
2023/08/01 07:51:34;;;;;;;13.82;3.60;;;;;;;17.93;100.00;155927.41;5138044;27;20391;-73
2023/08/01 07:54:00;;;;;;;19.73;4.53;;;;;;;18.54;100.00;156087.66;5136576;27;20042;-73
2023/08/01 07:56:25;;;;;;;15.13;3.43;;;;;;;19.05;100.00;156219.25;5136918;27;20031;-73
2023/08/01 07:58:50;;;;;;;16.80;3.93;;;;;;;19.03;100.00;156214.00;5135071;27;20393;-73
2023/08/01 08:01:16;;;;;;;14.73;3.80;;;;;;;19.54;100.00;156347.03;5131446;27;20055;-73
2023/08/01 08:03:41;;;;;;;13.07;3.60;;;;;;;19.16;100.00;156247.91;5136075;27;20015;-73
2023/08/01 08:06:07;;;;;;;11.70;3.30;;;;;;;18.75;100.00;156141.03;5128622;27;20066;-73
2023/08/01 08:08:36;;;;;;;11.47;3.23;;;;;;;18.90;100.00;156180.16;5130890;27;20472;-73
2023/08/01 08:11:02;;;;;;;17.52;4.07;;;;;;;19.33;100.00;156292.28;5128541;27;20495;-73
2023/08/01 08:13:28;;;;;;;11.37;3.23;;;;;;;19.60;100.00;156362.66;5131423;27;20022;-73
2023/08/01 08:15:57;;;;;;;17.67;3.85;;;;;;;19.20;100.00;156258.34;5129947;27;20890;-72
2023/08/01 08:18:23;;;;;;;13.93;4.15;;;;;;;19.13;100.00;156240.06;5137008;27;20027;-72
2023/08/01 08:20:48;;;;;;;16.40;3.70;;;;;;;19.38;100.00;156306.59;5134214;27;20499;-72
2023/08/01 08:23:14;;;;;;;13.83;3.30;;;;;;;19.41;100.00;156314.44;5134550;27;20306;-73
2023/08/01 08:25:39;;;;;;;18.70;3.23;;;;;;;19.28;100.00;156279.22;5135699;27;20121;-72
2023/08/01 08:28:05;;;;;;;20.50;4.38;;;;;;;19.27;100.00;156277.91;5133420;27;20384;-71
2023/08/01 08:30:30;;;;;;;13.63;4.40;;;;;;;19.24;100.00;156268.78;5131748;27;20023;-72
2023/08/01 08:32:58;;;;;;;15.37;3.60;;;;;;;19.01;100.00;156208.81;5133766;27;20032;-73
2023/08/01 08:35:23;;;;;;;18.73;2.92;;;;;;;19.04;100.00;156216.66;5129554;27;20015;-71
2023/08/01 08:37:48;;;;;;;13.00;3.53;;;;;;;18.93;100.00;156189.25;5128662;27;20083;-73
2023/08/01 08:40:14;;;;;;;19.70;3.90;;;;;;;18.98;100.00;156200.97;5131235;27;20022;-72
2023/08/01 08:42:39;;;;;;;14.77;3.27;;;;;;;18.90;100.00;156180.16;5145754;27;20031;-72
2023/08/01 08:45:06;;;;;;;13.63;4.17;;;;;;;18.79;100.00;156152.75;5133680;27;20030;-70
2023/08/01 08:47:36;;;;;;;14.27;3.75;;;;;;;18.69;100.00;156126.75;5132672;27;20043;-71
2023/08/01 08:50:02;;;;;;;11.75;4.03;;;;;;;18.56;100.00;156091.56;5135829;27;20039;-71
2023/08/01 08:52:27;;;;;;;14.40;4.67;;;;;;;18.69;100.00;156125.41;5118613;27;20042;-71
2023/08/01 08:54:53;;;;;;;13.17;3.77;;;;;;;19.08;100.00;156227.03;5123464;27;20435;-76
2023/08/01 08:57:19;;;;;;;23.03;4.83;;;;;;;19.71;100.00;156392.66;5119639;27;20023;-77
2023/08/01 08:59:46;;;;;;;15.13;4.35;;;;;;;19.75;100.00;156403.06;5120985;27;20390;-78
2023/08/01 09:02:14;;;;;;;22.25;4.55;;;;;;;19.49;99.04;156335.31;5118560;27;20039;-78
2023/08/01 09:04:39;;;;;;;16.83;4.00;;;;;;;20.03;99.89;156474.81;5124281;27;20023;-78
2023/08/01 09:07:09;;;;;;;21.63;4.03;;;;;;;19.73;97.92;156397.88;5120743;27;20057;-77
2023/08/01 09:09:34;;;;;;;19.55;4.47;;;;;;;19.51;98.17;156339.19;5120862;27;20060;-77
2023/08/01 09:12:00;;;;;;;14.90;3.93;;;;;;;19.48;99.44;156331.38;5118887;27;20034;-78
2023/08/01 09:14:25;;;;;;;16.57;3.90;;;;;;;19.31;100.00;156288.34;5120503;27;20077;-78
2023/08/01 09:16:51;;;;;;;11.87;3.70;;;;;;;19.20;100.00;156258.34;5118166;27;20020;-77
2023/08/01 09:19:22;;;;;;;10.47;2.90;;;;;;;19.39;97.69;156307.91;5122745;27;20047;-77
2023/08/01 09:21:48;;;;;;;17.90;4.15;;;;;;;19.23;97.55;156266.19;5121582;27;20385;-78
2023/08/01 09:24:14;;;;;;;11.27;3.25;;;;;;;19.09;97.12;156230.97;5123106;27;20027;-79
2023/08/01 09:26:40;;;;;;;15.45;3.75;;;;;;;19.44;96.61;156322.28;5123315;27;20031;-78
2023/08/01 09:29:06;;;;;;;15.82;3.83;;;;;;;19.30;96.86;156285.75;5122406;27;20027;-77
2023/08/01 09:31:34;;;;;;;14.10;3.50;;;;;;;19.75;96.41;156401.78;5119082;27;20434;-78
2023/08/01 09:34:01;;;;;;;16.25;3.70;;;;;;;19.55;96.29;156350.94;5120363;27;20437;-76
2023/08/01 09:36:27;;;;;;;14.60;3.58;;;;;;;19.50;96.51;156337.91;5116852;27;20114;-72
2023/08/01 09:39:02;;;;;;;13.07;4.07;;;;;;;20.04;93.08;156477.41;5122115;27;20205;-71
2023/08/01 09:41:31;;;;;;;15.30;3.65;;;;;;;20.44;89.86;156581.81;5121571;27;20075;-72
2023/08/01 09:43:57;;;;;;;24.75;3.83;;;;;;;20.57;86.93;156617.06;5121990;27;20027;-72
2023/08/01 09:46:24;;;;;;;13.65;3.25;;;;;;;20.13;88.86;156500.94;5119176;27;20098;-72
2023/08/01 09:48:49;;;;;;;22.60;3.22;;;;;;;19.98;89.81;156463.06;5121317;27;20068;-72
2023/08/01 09:51:17;;;;;;;10.93;3.27;;;;;;;19.59;89.85;156360.06;5117561;27;20508;-73
2023/08/01 09:53:48;;;;;;;11.05;3.10;;;;;;;19.77;90.27;156406.97;5123033;27;20031;-71
2023/08/01 09:56:17;;;;;;;12.85;3.75;;;;;;;20.29;87.63;156542.69;5118510;27;20035;-73
2023/08/01 09:58:44;;;;;;;10.02;3.05;;;;;;;20.72;85.69;156656.19;5137647;27;20377;-72
2023/08/01 10:01:10;;;;;;;18.63;3.33;;;;;;;21.30;83.68;156806.31;5118994;27;20070;-71
2023/08/01 10:03:35;;;;;;;10.63;3.17;;;;;;;21.12;81.94;156759.34;5113880;27;20066;-73
2023/08/01 10:06:01;;;;;;;17.27;3.00;;;;;;;21.00;81.18;156728.00;5114278;27;20401;-73
2023/08/01 10:08:29;;;;;;;11.37;3.40;;;;;;;20.23;83.27;156528.31;5118229;27;20365;-72
2023/08/01 10:10:56;;;;;;;13.23;2.90;;;;;;;19.79;85.90;156412.22;5114753;27;20038;-72
2023/08/01 10:13:24;;;;;;;13.52;3.65;;;;;;;20.14;87.03;156503.53;5119857;27;20096;-71
2023/08/01 10:15:51;;;;;;;8.70;2.30;;;;;;;20.43;83.61;156579.22;5115849;27;20424;-72
2023/08/01 10:18:16;;;;;;;14.30;3.10;;;;;;;20.01;83.36;156470.88;5117629;27;20042;-73
2023/08/01 10:20:44;;;;;;;8.88;2.60;;;;;;;20.01;84.89;156469.59;5121419;27;20020;-73
2023/08/01 10:23:10;;;;;;;13.88;2.67;;;;;;;19.81;83.22;156418.75;5120928;27;20052;-72
2023/08/01 10:25:38;;;;;;;14.55;3.83;;;;;;;19.68;84.33;156383.56;5115655;27;20476;-73
2023/08/01 10:28:05;;;;;;;11.98;2.65;;;;;;;20.38;84.38;156566.19;5119087;27;20042;-73
2023/08/01 10:30:31;;;;;;;8.82;2.63;;;;;;;20.90;82.11;156701.88;5121627;27;20063;-73
2023/08/01 10:32:57;;;;;;;7.63;2.70;;;;;;;21.38;79.19;156827.19;5123967;27;20027;-73
2023/08/01 10:35:32;;;;;;;;;;;;;;;21.39;78.02;156831.13;5123448;27;20082;-72
2023/08/01 10:38:04;;;;;;;14.98;2.55;;;;;;;21.03;78.45;156735.84;5117653;27;19915;-73
2023/08/01 10:40:43;;;;;;;12.95;2.83;;;;;;;21.63;77.77;156893.81;5118823;27;20023;-72
2023/08/01 10:43:22;;;;;;;10.68;3.22;;;;;;;20.77;78.19;156669.25;5118873;27;20063;-72
2023/08/01 10:45:48;;;;;;;16.25;3.50;;;;;;;20.83;79.34;156683.59;5120535;27;20064;-74
2023/08/01 10:48:13;;;;;;;9.70;2.60;;;;;;;21.33;77.71;156815.47;5120215;27;20039;-72
2023/08/01 10:50:39;;;;;;;10.33;2.70;;;;;;;21.45;76.92;156845.50;5116693;27;20035;-73
2023/08/01 10:53:07;;;;;;;18.13;3.22;;;;;;;21.09;77.42;156752.81;5117971;27;20042;-73
2023/08/01 10:55:45;;;;;;;12.50;2.65;;;;;;;21.43;73.82;156840.25;5119043;27;20023;-78
2023/08/01 10:58:11;;;;;;;9.88;2.20;;;;;;;22.27;72.55;157061.03;5120845;27;20434;-77
2023/08/01 11:00:36;;;;;;;10.27;2.45;;;;;;;21.90;69.18;156964.38;5117250;27;20015;-76
2023/08/01 11:03:02;;;;;;;5.10;2.23;;;;;;;21.82;70.13;156942.19;5118158;27;20032;-77
2023/08/01 11:05:29;;;;;;;10.77;2.50;;;;;;;21.47;69.95;156850.69;5116687;27;20058;-76
2023/08/01 11:07:56;;;;;;;15.23;2.28;;;;;;;21.14;71.91;156764.56;5119632;27;20419;-75
2023/08/01 11:10:22;;;;;;;14.70;3.00;;;;;;;20.94;72.88;156713.66;5122704;27;20022;-76
2023/08/01 11:12:47;;;;;;;11.02;2.47;;;;;;;20.90;73.71;156703.22;5119948;27;20067;-76
2023/08/01 11:15:14;;;;;;;16.40;4.10;;;;;;;20.73;72.70;156658.81;5116735;27;20071;-77
2023/08/01 11:17:42;;;;;;;16.70;2.70;;;;;;;20.58;74.40;156618.31;5113580;27;20870;-77
2023/08/01 11:20:09;;;;;;;15.95;4.50;;;;;;;20.54;75.27;156607.94;5118279;27;20409;-76
2023/08/01 11:22:35;;;;;;;15.43;3.58;;;;;;;20.51;77.48;156600.06;5123328;27;20027;-76
2023/08/01 11:25:02;;;;;;;7.55;2.50;;;;;;;20.44;78.74;156581.81;5112289;27;20510;-76
2023/08/01 11:27:28;;;;;;;13.10;3.20;;;;;;;20.37;78.58;156563.53;5119853;27;20487;-76
2023/08/01 11:29:54;;;;;;;8.75;2.65;;;;;;;20.43;79.31;156579.22;5112827;27;20032;-75
2023/08/01 11:32:20;;;;;;;15.45;2.72;;;;;;;21.10;77.56;156755.44;5115813;27;20042;-77
2023/08/01 11:34:46;;;;;;;7.63;2.83;;;;;;;20.93;76.94;156709.75;5117127;28;20118;-76
2023/08/01 11:37:18;;;;;;;11.30;2.72;;;;;;;21.67;75.95;156904.22;5119071;28;20432;-76
2023/08/01 11:39:45;;;;;;;11.70;2.70;;;;;;;21.09;73.70;156751.50;5116315;28;20046;-77
2023/08/01 11:42:15;;;;;;;15.65;2.70;;;;;;;20.91;73.58;156704.53;5112525;28;20431;-77